Time;durP1;ratioP1;P1;durP2;ratioP2;P2;SDS_P1;SDS_P2;PMS_P1;PMS_P2;Temp;Humidity;BMP_temperature;BMP_pressure;BME280_temperature;BME280_humidity;BME280_pressure;Samples;Min_cycle;Max_cycle;Signal;HPM_P1;HPM_P2
2021/01/20 00:00:20;;;;;;;5.13;2.27;;;1.30;99.90;;;;;;4073945;29;20478;-55
2021/01/20 00:02:21;;;;;;;9.00;2.57;;;1.30;99.90;;;;;;4072879;29;20516;-55
2021/01/20 00:04:23;;;;;;;4.73;2.50;;;1.40;99.90;;;;;;4072677;29;20490;-55
2021/01/20 00:06:24;;;;;;;5.57;2.63;;;1.40;99.90;;;;;;4072960;29;20491;-55
2021/01/20 00:08:25;;;;;;;6.63;2.87;;;1.40;99.90;;;;;;4071801;29;20503;-55
2021/01/20 00:10:27;;;;;;;6.40;3.00;;;1.40;99.90;;;;;;4072769;29;20477;-55
2021/01/20 00:12:28;;;;;;;10.33;3.20;;;1.40;99.90;;;;;;4073146;29;20487;-55
2021/01/20 00:14:30;;;;;;;7.00;2.90;;;1.40;99.90;;;;;;4074479;29;20525;-55
2021/01/20 00:16:32;;;;;;;7.40;3.10;;;1.40;99.90;;;;;;4073402;29;20567;-55
2021/01/20 00:18:33;;;;;;;7.77;3.10;;;1.50;99.90;;;;;;4072536;29;20478;-55
2021/01/20 00:20:34;;;;;;;7.50;3.20;;;1.50;99.90;;;;;;4072392;29;21131;-55
2021/01/20 00:22:36;;;;;;;5.73;2.90;;;1.60;99.90;;;;;;4073326;29;20483;-55
2021/01/20 00:24:37;;;;;;;4.87;2.70;;;1.60;99.90;;;;;;4074076;29;20482;-55
2021/01/20 00:26:38;;;;;;;5.40;2.97;;;1.70;99.90;;;;;;4070841;29;20480;-55
2021/01/20 00:28:40;;;;;;;6.10;2.93;;;1.70;99.90;;;;;;4074696;29;20469;-55
2021/01/20 00:30:41;;;;;;;7.93;2.90;;;1.70;99.90;;;;;;4072748;29;20548;-55
2021/01/20 00:32:43;;;;;;;7.90;3.20;;;1.70;99.90;;;;;;4072772;29;20495;-56
2021/01/20 00:34:45;;;;;;;9.50;3.30;;;1.70;99.90;;;;;;4071890;29;20485;-56
2021/01/20 00:36:46;;;;;;;8.03;3.30;;;1.70;99.90;;;;;;4071735;29;20488;-57
2021/01/20 00:38:47;;;;;;;7.27;2.80;;;1.70;99.90;;;;;;4073779;29;20481;-56
2021/01/20 00:40:48;;;;;;;4.37;2.57;;;1.70;99.90;;;;;;4070654;29;20476;-56
2021/01/20 00:42:50;;;;;;;5.43;2.70;;;1.70;99.90;;;;;;4072089;29;20559;-56
2021/01/20 00:44:51;;;;;;;5.03;2.50;;;1.70;99.90;;;;;;4071601;29;20484;-56
2021/01/20 00:46:52;;;;;;;5.93;2.87;;;1.60;99.90;;;;;;4073981;29;21044;-56
2021/01/20 00:48:55;;;;;;;3.70;2.40;;;1.50;99.90;;;;;;4073295;29;20481;-56
2021/01/20 00:50:57;;;;;;;4.77;2.40;;;1.50;99.90;;;;;;4071592;29;20511;-56
2021/01/20 00:52:58;;;;;;;4.97;2.73;;;1.40;99.90;;;;;;4073501;29;20574;-56
2021/01/20 00:55:00;;;;;;;6.20;3.07;;;1.40;99.90;;;;;;4074213;29;20506;-56
2021/01/20 00:57:01;;;;;;;7.03;2.90;;;1.30;99.90;;;;;;4071355;29;20567;-56
2021/01/20 00:59:02;;;;;;;7.97;3.17;;;1.40;99.90;;;;;;4073458;29;20474;-58
2021/01/20 01:01:04;;;;;;;5.53;2.73;;;1.30;99.90;;;;;;4071842;29;20476;-56
2021/01/20 01:03:06;;;;;;;7.40;3.30;;;1.30;99.90;;;;;;4074897;29;20504;-57
2021/01/20 01:05:10;;;;;;;8.13;3.30;;;1.30;99.90;;;;;;4076549;29;20490;-56
2021/01/20 01:07:11;;;;;;;10.17;2.97;;;1.30;99.90;;;;;;4074282;29;20480;-56
2021/01/20 01:09:12;;;;;;;7.77;2.97;;;1.20;99.90;;;;;;4074990;29;20482;-56
2021/01/20 01:11:13;;;;;;;7.30;3.33;;;1.20;99.90;;;;;;4075713;29;20500;-56
2021/01/20 01:13:15;;;;;;;11.77;3.50;;;1.20;99.90;;;;;;4074228;29;21052;-56
2021/01/20 01:15:17;;;;;;;5.77;3.00;;;1.20;99.90;;;;;;4075340;29;20495;-56
2021/01/20 01:17:18;;;;;;;7.67;3.57;;;1.10;99.90;;;;;;4076582;29;20511;-56
2021/01/20 01:19:20;;;;;;;7.77;3.10;;;1.10;99.90;;;;;;4076837;29;20477;-56
2021/01/20 01:21:22;;;;;;;5.03;2.60;;;1.00;99.90;;;;;;4075460;29;20472;-56
2021/01/20 01:23:24;;;;;;;8.17;3.87;;;1.00;99.90;;;;;;4074787;29;20829;-56
2021/01/20 01:25:25;;;;;;;9.23;3.13;;;1.00;99.90;;;;;;4074444;29;20489;-56
2021/01/20 01:27:27;;;;;;;8.33;3.10;;;0.90;99.90;;;;;;4075215;29;20477;-56
2021/01/20 01:29:28;;;;;;;7.47;3.40;;;0.80;99.90;;;;;;4074150;29;20566;-56
2021/01/20 01:31:29;;;;;;;7.37;3.10;;;0.80;99.90;;;;;;4076026;29;20572;-56
2021/01/20 01:33:31;;;;;;;5.60;2.87;;;0.70;99.90;;;;;;4073827;29;20467;-56
2021/01/20 01:35:33;;;;;;;8.97;3.47;;;0.70;99.90;;;;;;4074787;29;20486;-56
2021/01/20 01:37:35;;;;;;;6.30;3.20;;;0.70;99.90;;;;;;4074627;29;20481;-56
2021/01/20 01:39:36;;;;;;;7.50;3.03;;;0.60;99.90;;;;;;4075751;29;20473;-56
2021/01/20 01:41:37;;;;;;;6.17;3.20;;;0.50;99.90;;;;;;4075316;29;20478;-56
2021/01/20 01:43:39;;;;;;;8.50;3.00;;;0.50;99.90;;;;;;4073937;29;20958;-56
2021/01/20 01:45:40;;;;;;;6.00;2.77;;;0.40;99.90;;;;;;4072646;29;20949;-55
2021/01/20 01:47:43;;;;;;;5.97;2.90;;;0.30;99.90;;;;;;4074323;29;20506;-55
2021/01/20 01:49:45;;;;;;;6.27;2.97;;;0.30;99.90;;;;;;4075253;29;21046;-55
2021/01/20 01:51:46;;;;;;;6.13;2.90;;;0.20;99.90;;;;;;4077284;29;20503;-55
2021/01/20 01:53:50;;;;;;;5.77;2.80;;;0.20;99.90;;;;;;4074280;29;20474;-55
2021/01/20 01:55:51;;;;;;;4.90;2.73;;;0.20;99.90;;;;;;4075048;29;20500;-55
2021/01/20 01:57:53;;;;;;;6.23;2.93;;;0.10;99.90;;;;;;4072831;29;20474;-56
2021/01/20 01:59:54;;;;;;;5.70;2.60;;;0.10;99.90;;;;;;4073666;29;20977;-55
2021/01/20 02:01:56;;;;;;;8.53;3.13;;;0.10;99.90;;;;;;4074134;29;20465;-55
2021/01/20 02:03:57;;;;;;;6.93;3.33;;;0.00;99.90;;;;;;4076237;29;20559;-55
2021/01/20 02:05:58;;;;;;;9.77;4.20;;;0.00;99.90;;;;;;4073186;29;20493;-56
2021/01/20 02:08:03;;;;;;;8.50;3.70;;;0.00;99.90;;;;;;4073431;29;20479;-55
2021/01/20 02:10:08;;;;;;;11.10;4.03;;;0.00;99.90;;;;;;4074393;29;20925;-55
2021/01/20 02:12:36;;;;;;;8.97;3.87;;;0.00;99.90;;;;;;4074565;29;20498;-55
2021/01/20 02:14:50;;;;;;;10.43;3.80;;;0.00;99.90;;;;;;4037964;29;20480;-55
2021/01/20 02:16:59;;;;;;;9.43;3.67;;;0.00;99.90;;;;;;4074566;29;20478;-55
2021/01/20 02:19:06;;;;;;;7.07;3.47;;;0.00;99.90;;;;;;4074830;29;20466;-54
2021/01/20 02:21:51;;;;;;;9.60;3.90;;;-0.10;99.90;;;;;;4072882;29;20478;-55
2021/01/20 02:23:57;;;;;;;8.80;3.80;;;-0.10;99.90;;;;;;4074016;29;20475;-55
2021/01/20 02:26:19;;;;;;;8.10;3.60;;;-0.10;99.90;;;;;;4074522;29;20569;-55
2021/01/20 02:28:26;;;;;;;10.57;3.70;;;-0.10;99.90;;;;;;4073962;29;20541;-54
2021/01/20 02:30:29;;;;;;;7.63;3.60;;;-0.10;99.90;;;;;;4075489;29;21015;-55
2021/01/20 02:32:32;;;;;;;8.30;4.20;;;-0.10;99.90;;;;;;4073549;29;20480;-55
2021/01/20 02:34:35;;;;;;;7.73;3.43;;;-0.20;99.90;;;;;;4074975;29;20490;-55
2021/01/20 02:36:37;;;;;;;7.03;3.33;;;-0.20;99.90;;;;;;4075796;29;20533;-55
2021/01/20 02:38:40;;;;;;;7.10;3.33;;;-0.20;99.90;;;;;;4073938;29;20471;-54
2021/01/20 02:40:41;;;;;;;8.77;3.60;;;-0.20;99.90;;;;;;4074889;29;20554;-54
2021/01/20 02:42:44;;;;;;;11.40;3.97;;;-0.20;99.90;;;;;;4073831;29;20480;-55
2021/01/20 02:44:45;;;;;;;8.23;3.90;;;-0.10;99.90;;;;;;4073115;29;20502;-54
2021/01/20 02:46:47;;;;;;;10.70;3.93;;;-0.10;99.90;;;;;;4074684;29;20469;-55
2021/01/20 02:48:49;;;;;;;8.20;3.33;;;-0.10;99.90;;;;;;4073079;29;20811;-54
2021/01/20 02:50:51;;;;;;;9.93;3.67;;;-0.10;99.90;;;;;;4074612;29;20520;-55
2021/01/20 02:53:01;;;;;;;10.73;4.53;;;-0.10;99.90;;;;;;4071650;29;20989;-55
2021/01/20 02:55:04;;;;;;;9.07;3.50;;;-0.10;99.90;;;;;;4072621;29;20473;-55
2021/01/20 02:57:07;;;;;;;7.33;3.00;;;-0.20;99.90;;;;;;4072549;29;20611;-55
2021/01/20 02:59:10;;;;;;;8.17;3.40;;;-0.20;99.90;;;;;;4074802;29;20471;-55
2021/01/20 03:01:13;;;;;;;6.77;3.13;;;-0.20;99.90;;;;;;4074174;29;20482;-55
2021/01/20 03:03:17;;;;;;;7.57;3.50;;;-0.20;99.90;;;;;;4073494;29;20505;-55
2021/01/20 03:05:21;;;;;;;7.20;3.35;;;-0.20;99.90;;;;;;4071834;29;20489;-55
2021/01/20 03:07:23;;;;;;;8.43;3.70;;;-0.20;99.90;;;;;;4075923;29;20218;-54
2021/01/20 03:09:25;;;;;;;8.10;3.93;;;-0.20;99.90;;;;;;4072750;29;20485;-55
2021/01/20 03:11:26;;;;;;;11.73;4.20;;;-0.20;99.90;;;;;;4072555;29;20502;-56
2021/01/20 03:13:28;;;;;;;8.10;3.97;;;-0.20;99.90;;;;;;4072933;29;20475;-56
2021/01/20 03:15:33;;;;;;;7.90;3.83;;;-0.10;99.90;;;;;;4072221;29;20478;-55
2021/01/20 03:17:35;;;;;;;10.33;3.77;;;-0.10;99.90;;;;;;4074928;29;20485;-56
2021/01/20 03:19:37;;;;;;;9.77;3.33;;;-0.10;99.90;;;;;;4074608;29;20479;-56
2021/01/20 03:21:38;;;;;;;9.67;3.73;;;-0.10;99.90;;;;;;4072941;29;20578;-56
2021/01/20 03:23:39;;;;;;;10.70;3.80;;;-0.10;99.90;;;;;;4073872;29;20482;-55
2021/01/20 03:25:41;;;;;;;6.87;3.17;;;-0.10;99.90;;;;;;4071705;29;20950;-55
2021/01/20 03:27:42;;;;;;;9.37;3.47;;;-0.10;99.90;;;;;;4072342;29;20501;-56
2021/01/20 03:29:43;;;;;;;8.47;3.43;;;-0.20;99.90;;;;;;4072550;29;20546;-55
2021/01/20 03:31:45;;;;;;;5.60;2.83;;;-0.20;99.90;;;;;;4074518;29;20486;-55
2021/01/20 03:33:46;;;;;;;6.37;3.10;;;-0.20;99.90;;;;;;4075013;29;20541;-55
2021/01/20 03:35:48;;;;;;;6.53;2.90;;;-0.20;99.90;;;;;;4070669;29;20505;-56
2021/01/20 03:37:50;;;;;;;5.77;3.10;;;-0.20;99.90;;;;;;4073420;29;20482;-55
2021/01/20 03:39:51;;;;;;;8.87;3.20;;;-0.10;99.90;;;;;;4073562;29;20486;-55
2021/01/20 03:41:52;;;;;;;8.57;3.20;;;-0.10;99.90;;;;;;4073308;29;20968;-55
2021/01/20 03:43:54;;;;;;;6.70;3.57;;;0.00;99.90;;;;;;4071753;29;20565;-55
2021/01/20 03:45:56;;;;;;;8.20;3.50;;;0.10;99.90;;;;;;4074894;29;20470;-55
2021/01/20 03:47:57;;;;;;;7.87;3.23;;;0.10;99.90;;;;;;4072805;29;20466;-55
2021/01/20 03:49:58;;;;;;;7.50;3.63;;;0.20;99.90;;;;;;4074944;29;22399;-55
2021/01/20 03:52:01;;;;;;;6.40;3.13;;;0.30;99.90;;;;;;4071440;29;20563;-55
2021/01/20 03:54:02;;;;;;;7.57;3.17;;;0.30;99.90;;;;;;4071842;29;20617;-55
2021/01/20 03:56:04;;;;;;;6.07;3.20;;;0.40;99.90;;;;;;4072538;29;20474;-55
2021/01/20 03:58:05;;;;;;;6.33;3.33;;;0.40;99.90;;;;;;4072680;29;21148;-55
2021/01/20 04:00:07;;;;;;;7.17;3.60;;;0.50;99.90;;;;;;4071980;29;20469;-55
2021/01/20 04:02:08;;;;;;;10.37;3.90;;;0.50;99.90;;;;;;4073251;29;20482;-56
2021/01/20 04:04:09;;;;;;;9.37;3.30;;;0.50;99.90;;;;;;4074540;29;20493;-58
2021/01/20 04:06:11;;;;;;;7.47;3.60;;;0.60;99.90;;;;;;4072617;29;20485;-55
2021/01/20 04:08:13;;;;;;;7.97;3.67;;;0.60;99.90;;;;;;4073307;29;20837;-55
2021/01/20 04:10:14;;;;;;;8.17;3.53;;;0.70;99.90;;;;;;4072399;29;20490;-55
2021/01/20 04:12:16;;;;;;;9.57;3.97;;;0.80;99.90;;;;;;4071198;29;20504;-56
2021/01/20 04:14:17;;;;;;;9.07;4.23;;;0.80;99.90;;;;;;4072137;29;20494;-56
2021/01/20 04:16:18;;;;;;;7.57;4.03;;;0.90;99.90;;;;;;4071929;29;20482;-59
2021/01/20 04:18:19;;;;;;;9.90;4.13;;;0.90;99.90;;;;;;4074520;29;20483;-55
2021/01/20 04:20:21;;;;;;;7.90;4.13;;;0.90;99.90;;;;;;4073228;29;20478;-55
2021/01/20 04:22:22;;;;;;;8.47;4.20;;;1.00;99.90;;;;;;4073274;29;20466;-55
2021/01/20 04:24:24;;;;;;;8.77;4.10;;;1.00;99.90;;;;;;4072664;29;20473;-55
2021/01/20 04:26:26;;;;;;;9.00;4.07;;;1.00;99.90;;;;;;4072583;29;20483;-55
2021/01/20 04:28:27;;;;;;;8.43;4.10;;;1.00;99.90;;;;;;4072024;29;20487;-56
2021/01/20 04:30:28;;;;;;;9.20;3.87;;;1.00;99.90;;;;;;4073102;29;20511;-56
2021/01/20 04:32:30;;;;;;;13.23;4.70;;;1.00;99.90;;;;;;4070126;29;20494;-55
2021/01/20 04:34:31;;;;;;;7.93;3.73;;;0.90;99.90;;;;;;4072772;29;20467;-55
2021/01/20 04:36:32;;;;;;;8.27;3.93;;;0.90;99.90;;;;;;4070923;29;20478;-55
2021/01/20 04:38:34;;;;;;;8.70;4.10;;;0.90;99.90;;;;;;4073679;29;20492;-55
2021/01/20 04:40:36;;;;;;;12.13;4.00;;;0.80;99.90;;;;;;4072399;29;20481;-56
2021/01/20 04:42:38;;;;;;;10.00;4.50;;;0.80;99.90;;;;;;4072221;29;20963;-55
2021/01/20 04:44:40;;;;;;;8.27;3.83;;;0.80;99.90;;;;;;4073669;29;21068;-55
2021/01/20 04:46:43;;;;;;;9.27;3.90;;;0.70;99.90;;;;;;4071898;29;20494;-55
2021/01/20 04:48:47;;;;;;;8.80;3.83;;;0.70;99.90;;;;;;4072004;29;20470;-55
2021/01/20 04:50:49;;;;;;;12.33;4.30;;;0.60;99.90;;;;;;4072596;29;20509;-55
2021/01/20 04:52:51;;;;;;;8.73;4.17;;;0.60;99.90;;;;;;4071378;29;20486;-55
2021/01/20 04:54:55;;;;;;;8.10;3.87;;;0.60;99.90;;;;;;4072475;29;20489;-54
2021/01/20 04:56:58;;;;;;;10.67;4.27;;;0.50;99.90;;;;;;4071310;29;20474;-55
2021/01/20 04:58:59;;;;;;;8.67;4.03;;;0.50;99.90;;;;;;4072472;29;21563;-54
2021/01/20 05:01:01;;;;;;;9.90;4.23;;;0.50;99.90;;;;;;4073236;29;20478;-55
2021/01/20 05:03:05;;;;;;;8.07;3.43;;;0.40;99.90;;;;;;4072668;29;20502;-55
2021/01/20 05:05:10;;;;;;;7.50;3.87;;;0.40;99.90;;;;;;4072500;29;21038;-54
2021/01/20 05:07:11;;;;;;;7.87;4.07;;;0.40;99.90;;;;;;4073315;29;20566;-54
2021/01/20 05:09:12;;;;;;;8.03;3.77;;;0.40;99.90;;;;;;4071619;29;20474;-55
2021/01/20 05:11:14;;;;;;;8.00;3.73;;;0.40;99.90;;;;;;4071749;29;20502;-54
2021/01/20 05:13:27;;;;;;;8.87;3.93;;;0.40;99.90;;;;;;4071375;29;20536;-55
2021/01/20 05:15:32;;;;;;;10.73;3.73;;;0.40;99.90;;;;;;4072931;29;20481;-54
2021/01/20 05:17:35;;;;;;;8.07;3.47;;;0.40;99.90;;;;;;4072166;29;20475;-54
2021/01/20 05:19:38;;;;;;;9.73;3.60;;;0.40;99.90;;;;;;4072983;29;20494;-54
2021/01/20 05:21:39;;;;;;;8.50;3.63;;;0.40;99.90;;;;;;4071828;29;20463;-54
2021/01/20 05:23:40;;;;;;;7.73;3.80;;;0.40;99.90;;;;;;4071757;29;20474;-54
2021/01/20 05:25:44;;;;;;;8.67;3.83;;;0.40;99.90;;;;;;4071435;29;20480;-59
2021/01/20 05:27:45;;;;;;;9.20;3.93;;;0.50;99.90;;;;;;4073064;29;20497;-55
2021/01/20 05:29:58;;;;;;;10.23;3.73;;;0.50;99.90;;;;;;4071981;29;20611;-54
2021/01/20 05:32:15;;;;;;;10.80;4.30;;;0.60;99.90;;;;;;4070436;29;20557;-54
2021/01/20 05:34:32;;;;;;;10.53;4.07;;;0.70;99.90;;;;;;4073927;29;20480;-54
2021/01/20 05:36:33;;;;;;;10.03;3.67;;;0.80;99.90;;;;;;4071529;29;20555;-55
2021/01/20 05:38:39;;;;;;;8.50;4.13;;;0.90;99.90;;;;;;4073164;29;20501;-55
2021/01/20 05:40:40;;;;;;;10.37;4.30;;;1.00;99.90;;;;;;4071087;29;20470;-55
2021/01/20 05:42:49;;;;;;;9.87;4.20;;;1.10;99.90;;;;;;4070730;29;20561;-55
2021/01/20 05:45:03;;;;;;;10.43;4.07;;;1.20;99.90;;;;;;4072593;29;20488;-55
2021/01/20 05:47:08;;;;;;;8.10;3.70;;;1.20;99.90;;;;;;4072735;29;20470;-55
2021/01/20 05:49:22;;;;;;;8.93;3.73;;;1.20;99.90;;;;;;4075251;29;20478;-54
2021/01/20 05:51:24;;;;;;;9.63;4.10;;;1.30;99.90;;;;;;4074108;29;20495;-55
2021/01/20 05:53:25;;;;;;;11.17;3.67;;;1.40;99.90;;;;;;4076222;29;20593;-55
2021/01/20 05:55:26;;;;;;;7.57;3.53;;;1.40;99.90;;;;;;4074074;29;20496;-55
2021/01/20 05:57:28;;;;;;;7.80;3.70;;;1.40;99.90;;;;;;4075097;29;20478;-55
2021/01/20 05:59:29;;;;;;;5.47;3.00;;;1.40;99.90;;;;;;4076002;29;20565;-55
2021/01/20 06:01:32;;;;;;;10.73;3.77;;;1.50;99.90;;;;;;4074141;29;20492;-54
2021/01/20 06:03:34;;;;;;;10.77;4.40;;;1.60;99.90;;;;;;4075094;29;20508;-55
2021/01/20 06:05:37;;;;;;;6.47;3.20;;;1.60;99.90;;;;;;4073945;29;20546;-55
2021/01/20 06:07:38;;;;;;;6.33;3.40;;;1.60;99.90;;;;;;4075527;29;20507;-55
2021/01/20 06:09:41;;;;;;;9.33;4.00;;;1.60;99.90;;;;;;4075707;29;20514;-54
2021/01/20 06:11:42;;;;;;;6.70;3.77;;;1.70;99.90;;;;;;4072740;29;20815;-55
2021/01/20 06:13:46;;;;;;;9.27;4.07;;;1.70;99.90;;;;;;4074153;29;20472;-55
2021/01/20 06:15:50;;;;;;;7.97;3.57;;;1.70;99.90;;;;;;4073575;29;20488;-54
2021/01/20 06:17:55;;;;;;;7.83;4.00;;;1.70;99.90;;;;;;4074676;29;20972;-54
2021/01/20 06:20:00;;;;;;;7.30;4.00;;;1.70;99.90;;;;;;4075747;29;20920;-54
2021/01/20 06:22:04;;;;;;;7.67;3.40;;;1.80;99.90;;;;;;4073240;29;20472;-54
2021/01/20 06:24:12;;;;;;;8.40;3.87;;;1.80;99.90;;;;;;4074477;29;21105;-55
2021/01/20 06:26:15;;;;;;;7.33;3.60;;;1.80;99.90;;;;;;4075921;29;20491;-55
2021/01/20 06:28:16;;;;;;;7.43;3.30;;;1.80;99.90;;;;;;4074620;29;20826;-55
2021/01/20 06:30:23;;;;;;;6.13;3.60;;;1.80;99.90;;;;;;4071933;29;20487;-55
2021/01/20 06:32:25;;;;;;;7.10;3.80;;;1.90;99.90;;;;;;4074919;29;20506;-54
2021/01/20 06:34:28;;;;;;;8.07;3.80;;;1.90;99.90;;;;;;4074338;29;20830;-55
2021/01/20 06:36:33;;;;;;;9.70;4.10;;;1.90;99.90;;;;;;4073298;29;20549;-55
2021/01/20 06:38:36;;;;;;;8.07;3.93;;;1.90;99.90;;;;;;4072814;29;20866;-55
2021/01/20 06:40:39;;;;;;;8.20;3.47;;;1.90;99.90;;;;;;4073534;29;21092;-59
2021/01/20 06:42:40;;;;;;;6.97;3.60;;;2.00;99.90;;;;;;4073223;29;20470;-55
2021/01/20 06:45:15;;;;;;;7.13;3.23;;;2.00;99.90;;;;;;4073120;29;21387;-55
2021/01/20 06:47:16;;;;;;;7.10;3.47;;;2.00;99.90;;;;;;4074775;29;20480;-55
2021/01/20 06:49:17;;;;;;;8.17;3.53;;;2.10;99.90;;;;;;4073476;29;20474;-55
2021/01/20 06:51:20;;;;;;;6.93;3.77;;;2.00;99.90;;;;;;4073828;29;20825;-55
2021/01/20 06:53:21;;;;;;;7.33;3.63;;;2.10;99.90;;;;;;4073478;29;20485;-55
2021/01/20 06:55:33;;;;;;;8.77;3.50;;;2.10;99.90;;;;;;4073383;29;20509;-54
2021/01/20 06:57:36;;;;;;;7.63;3.90;;;2.10;99.90;;;;;;4073670;29;20472;-55
2021/01/20 06:59:37;;;;;;;8.47;3.70;;;2.10;99.90;;;;;;4070754;29;20480;-55
2021/01/20 07:01:38;;;;;;;7.63;3.77;;;2.10;99.90;;;;;;4072726;29;20533;-55
2021/01/20 07:03:40;;;;;;;9.00;3.67;;;2.00;99.90;;;;;;4076494;29;20518;-55
2021/01/20 07:05:44;;;;;;;6.03;3.53;;;2.00;99.90;;;;;;4073355;29;20467;-57
2021/01/20 07:07:54;;;;;;;8.80;3.87;;;2.00;99.90;;;;;;4074190;29;20483;-55
2021/01/20 07:10:02;;;;;;;6.80;3.40;;;2.00;99.90;;;;;;4073119;29;20477;-55
2021/01/20 07:12:07;;;;;;;8.90;3.60;;;2.00;99.90;;;;;;4074245;29;20497;-55
2021/01/20 07:14:26;;;;;;;8.37;3.47;;;1.90;99.90;;;;;;4071469;29;20482;-55
2021/01/20 07:16:28;;;;;;;7.77;3.90;;;1.90;99.90;;;;;;4074469;29;20498;-55
2021/01/20 07:18:31;;;;;;;9.13;3.87;;;2.00;99.90;;;;;;4072376;29;20474;-55
2021/01/20 07:20:33;;;;;;;7.57;3.67;;;2.00;99.90;;;;;;4071596;29;20821;-55
2021/01/20 07:22:35;;;;;;;8.30;3.90;;;2.00;99.90;;;;;;4071101;29;20483;-55
2021/01/20 07:24:37;;;;;;;6.07;3.17;;;2.00;99.90;;;;;;4073611;29;20478;-55
2021/01/20 07:26:41;;;;;;;6.97;3.27;;;2.00;99.90;;;;;;4072321;29;20479;-55
2021/01/20 07:28:43;;;;;;;7.53;3.13;;;2.10;99.90;;;;;;4066738;29;20479;-55
2021/01/20 07:30:44;;;;;;;7.17;3.57;;;2.10;99.90;;;;;;4070825;29;20600;-55
2021/01/20 07:32:45;;;;;;;6.47;3.37;;;2.20;99.90;;;;;;4068828;29;20483;-55
2021/01/20 07:34:47;;;;;;;8.13;3.90;;;2.20;99.90;;;;;;4071050;29;20482;-55
2021/01/20 07:36:48;;;;;;;5.27;3.00;;;2.30;99.90;;;;;;4073554;29;20562;-54
2021/01/20 07:38:50;;;;;;;6.90;3.37;;;2.30;99.90;;;;;;4070011;29;20485;-54
2021/01/20 07:40:52;;;;;;;5.80;3.10;;;2.30;99.90;;;;;;4071155;29;20493;-54
2021/01/20 07:42:53;;;;;;;7.33;3.20;;;2.40;99.90;;;;;;4073304;29;20476;-55
2021/01/20 07:44:55;;;;;;;7.53;3.50;;;2.30;99.90;;;;;;4070813;29;20478;-54
2021/01/20 07:47:00;;;;;;;7.37;3.50;;;2.30;99.90;;;;;;4069331;29;21204;-54
2021/01/20 07:49:11;;;;;;;6.80;3.17;;;2.30;99.90;;;;;;4069728;29;20536;-55
2021/01/20 07:51:20;;;;;;;5.63;2.83;;;2.30;99.90;;;;;;4070423;29;20494;-54
2021/01/20 07:53:21;;;;;;;5.10;3.00;;;2.30;99.90;;;;;;4071363;29;20473;-54
2021/01/20 07:55:22;;;;;;;6.50;3.20;;;2.30;99.90;;;;;;4071648;29;22542;-54
2021/01/20 07:57:25;;;;;;;7.00;3.03;;;2.40;99.90;;;;;;4071346;29;20476;-54
2021/01/20 07:59:26;;;;;;;5.57;2.90;;;2.40;99.90;;;;;;4069085;29;20484;-54
2021/01/20 08:01:29;;;;;;;7.47;3.20;;;2.40;99.90;;;;;;4068430;29;20465;-56
2021/01/20 08:03:32;;;;;;;5.97;3.07;;;2.50;99.90;;;;;;4069306;29;20509;-54
2021/01/20 08:05:35;;;;;;;7.07;3.20;;;2.50;99.90;;;;;;4068919;29;20511;-55
2021/01/20 08:07:36;;;;;;;6.03;3.00;;;2.50;99.90;;;;;;4071257;29;21037;-55
2021/01/20 08:09:38;;;;;;;4.80;2.90;;;2.60;99.90;;;;;;4070379;29;20474;-55
2021/01/20 08:11:41;;;;;;;6.30;3.30;;;2.70;99.90;;;;;;4071030;29;20492;-55
2021/01/20 08:13:44;;;;;;;5.53;3.30;;;2.70;99.90;;;;;;4070476;29;20569;-55
2021/01/20 08:15:45;;;;;;;7.30;3.37;;;2.70;99.90;;;;;;4070477;29;20482;-55
2021/01/20 08:17:47;;;;;;;7.20;3.10;;;2.80;99.90;;;;;;4071673;29;20966;-55
2021/01/20 08:19:50;;;;;;;7.38;3.70;;;2.90;99.90;;;;;;4069587;29;20469;-55
2021/01/20 08:21:51;;;;;;;7.90;3.67;;;3.00;99.90;;;;;;4069035;29;20225;-55
2021/01/20 08:23:55;;;;;;;8.00;4.22;;;3.10;99.90;;;;;;4069811;29;20497;-55
2021/01/20 08:26:06;;;;;;;6.53;3.50;;;3.20;99.90;;;;;;4069253;29;20218;-55
2021/01/20 08:28:13;;;;;;;7.63;3.60;;;3.30;99.90;;;;;;4068299;29;20466;-55
2021/01/20 08:30:29;;;;;;;6.13;3.27;;;3.40;99.90;;;;;;4068231;29;20482;-55
2021/01/20 08:32:32;;;;;;;7.03;3.43;;;3.50;99.90;;;;;;4068983;29;20505;-55
2021/01/20 08:34:35;;;;;;;6.07;3.23;;;3.50;99.90;;;;;;4071110;29;21366;-55
2021/01/20 08:36:37;;;;;;;7.80;4.07;;;3.60;99.90;;;;;;4068521;29;20477;-55
2021/01/20 08:38:38;;;;;;;7.87;4.20;;;3.60;99.90;;;;;;4070084;29;20556;-55
2021/01/20 08:40:39;;;;;;;7.27;4.20;;;3.60;99.90;;;;;;4069511;29;20478;-55
2021/01/20 08:42:44;;;;;;;8.10;4.85;;;3.60;99.90;;;;;;4068170;29;20468;-55
2021/01/20 08:45:03;;;;;;;7.27;4.37;;;3.70;99.90;;;;;;4068643;29;22178;-55
2021/01/20 08:47:05;;;;;;;7.13;4.10;;;3.80;99.90;;;;;;4071325;29;20509;-56
2021/01/20 08:49:07;;;;;;;7.00;3.83;;;3.90;99.90;;;;;;4067827;29;21725;-56
2021/01/20 08:51:09;;;;;;;6.40;4.00;;;3.90;99.90;;;;;;4068487;29;21300;-56
2021/01/20 08:53:13;;;;;;;6.88;3.88;;;4.00;99.90;;;;;;4068437;29;20489;-55
2021/01/20 08:55:26;;;;;;;6.67;3.83;;;4.10;99.90;;;;;;4071591;29;20218;-55
2021/01/20 08:57:28;;;;;;;6.53;3.27;;;4.10;99.90;;;;;;4071136;29;20606;-55
2021/01/20 08:59:50;;;;;;;6.40;3.27;;;4.10;99.90;;;;;;4068185;29;20845;-55
2021/01/20 09:01:52;;;;;;;5.90;3.45;;;4.20;99.90;;;;;;4068969;29;20457;-55
2021/01/20 09:03:58;;;;;;;6.95;3.72;;;4.20;99.90;;;;;;4068375;29;20820;-55
2021/01/20 09:06:01;;;;;;;5.57;2.97;;;4.30;99.90;;;;;;4068522;29;20221;-55
2021/01/20 09:08:02;;;;;;;5.33;3.10;;;4.30;99.90;;;;;;4068089;29;20511;-58
2021/01/20 09:10:04;;;;;;;6.70;3.50;;;4.30;99.90;;;;;;4070360;29;20474;-57
2021/01/20 09:12:06;;;;;;;4.77;2.73;;;4.30;99.90;;;;;;4070274;29;20497;-58
2021/01/20 09:14:08;;;;;;;6.83;3.57;;;4.30;99.90;;;;;;4069241;29;20490;-55
2021/01/20 09:16:09;;;;;;;7.50;3.00;;;4.40;99.90;;;;;;4069091;29;20497;-56
2021/01/20 09:18:10;;;;;;;5.50;2.77;;;4.50;99.90;;;;;;4069176;29;20466;-59
2021/01/20 09:20:14;;;;;;;5.95;3.20;;;4.60;99.90;;;;;;4069612;29;20479;-56
2021/01/20 09:22:15;;;;;;;7.00;3.75;;;4.80;99.90;;;;;;4070790;29;20474;-56
2021/01/20 09:24:16;;;;;;;4.80;2.70;;;5.00;99.90;;;;;;4072395;29;22053;-56
2021/01/20 09:26:18;;;;;;;6.97;2.93;;;5.10;99.90;;;;;;4071988;29;20482;-56
2021/01/20 09:28:19;;;;;;;5.97;2.80;;;5.10;99.90;;;;;;4072830;29;20902;-57
2021/01/20 09:30:21;;;;;;;6.30;3.23;;;5.20;99.90;;;;;;4073216;29;20486;-56
2021/01/20 09:32:23;;;;;;;4.63;2.80;;;5.20;99.90;;;;;;4073948;29;20501;-56
2021/01/20 09:34:24;;;;;;;5.33;2.83;;;5.30;99.90;;;;;;4073592;29;20823;-56
2021/01/20 09:36:26;;;;;;;5.57;2.73;;;5.30;99.90;;;;;;4076488;29;20474;-56
2021/01/20 09:38:28;;;;;;;4.33;2.70;;;5.40;99.90;;;;;;4076058;29;20479;-56
2021/01/20 09:40:29;;;;;;;4.43;2.87;;;5.40;99.90;;;;;;4072703;29;20553;-56
2021/01/20 09:42:31;;;;;;;5.80;2.60;;;5.40;99.90;;;;;;4071353;29;20475;-56
2021/01/20 09:44:32;;;;;;;5.40;2.83;;;5.30;99.90;;;;;;4071829;29;20537;-57
2021/01/20 09:46:34;;;;;;;7.13;2.80;;;5.30;99.90;;;;;;4074505;29;20465;-57
2021/01/20 09:48:36;;;;;;;5.33;2.83;;;5.40;99.90;;;;;;4074035;29;21049;-57
2021/01/20 09:50:38;;;;;;;6.47;2.70;;;5.40;99.90;;;;;;4072530;29;20969;-57
2021/01/20 09:52:41;;;;;;;5.83;2.67;;;5.40;99.90;;;;;;4073483;29;20683;-57
2021/01/20 09:54:43;;;;;;;8.90;3.40;;;5.50;99.90;;;;;;4072486;29;21121;-56
2021/01/20 09:56:44;;;;;;;5.83;2.87;;;5.50;99.90;;;;;;4071295;29;20473;-57
2021/01/20 09:58:47;;;;;;;6.27;2.83;;;5.50;99.90;;;;;;4072722;29;20520;-57
2021/01/20 10:00:48;;;;;;;4.87;2.90;;;5.60;99.90;;;;;;4075654;29;21174;-57
2021/01/20 10:02:50;;;;;;;7.50;2.90;;;5.70;99.90;;;;;;4072514;29;20498;-56
2021/01/20 10:04:52;;;;;;;5.23;2.83;;;5.70;99.90;;;;;;4073257;29;21030;-59
2021/01/20 10:06:53;;;;;;;5.18;3.00;;;5.70;99.90;;;;;;4072208;29;20467;-57
2021/01/20 10:08:56;;;;;;;4.30;2.70;;;5.80;99.90;;;;;;4073450;29;20219;-58
2021/01/20 10:10:57;;;;;;;6.05;3.10;;;5.80;99.90;;;;;;4072138;29;20548;-57
2021/01/20 10:12:59;;;;;;;6.93;3.37;;;5.90;99.90;;;;;;4072200;29;20238;-57
2021/01/20 10:15:00;;;;;;;5.80;2.93;;;5.90;99.90;;;;;;4074640;29;20481;-57
2021/01/20 10:17:01;;;;;;;6.77;2.80;;;5.90;99.90;;;;;;4073588;29;20479;-57
2021/01/20 10:19:03;;;;;;;5.47;2.33;;;5.90;99.90;;;;;;4070588;29;20475;-57
2021/01/20 10:21:04;;;;;;;6.53;2.90;;;5.90;99.90;;;;;;4072158;29;20474;-58
2021/01/20 10:23:08;;;;;;;6.83;3.30;;;5.90;99.90;;;;;;4072246;29;20541;-57
2021/01/20 10:25:12;;;;;;;6.07;2.83;;;5.90;99.90;;;;;;4071861;29;20471;-56
2021/01/20 10:27:14;;;;;;;6.90;3.07;;;5.90;99.90;;;;;;4072923;29;20474;-56
2021/01/20 10:29:15;;;;;;;6.40;3.00;;;6.00;99.90;;;;;;4073800;29;20488;-56
2021/01/20 10:31:17;;;;;;;5.73;3.00;;;6.00;99.90;;;;;;4072606;29;21369;-57
2021/01/20 10:33:18;;;;;;;5.73;2.90;;;6.00;99.90;;;;;;4072382;29;20499;-56
2021/01/20 10:35:20;;;;;;;7.97;3.10;;;6.00;99.90;;;;;;4073345;29;20474;-57
2021/01/20 10:37:21;;;;;;;7.77;3.00;;;6.00;99.90;;;;;;4073524;29;20474;-56
2021/01/20 10:39:23;;;;;;;8.27;3.13;;;6.00;99.90;;;;;;4071510;29;20493;-57
2021/01/20 10:41:26;;;;;;;6.25;3.10;;;6.00;99.90;;;;;;4070154;29;21032;-57
2021/01/20 10:43:27;;;;;;;5.32;3.00;;;6.00;99.90;;;;;;4070794;29;20488;-57
2021/01/20 10:45:28;;;;;;;6.82;3.40;;;6.00;99.90;;;;;;4070893;29;20461;-56
2021/01/20 10:47:29;;;;;;;8.23;3.07;;;6.00;99.80;;;;;;4071566;29;20228;-57